createdAt,value
2022-10-31T00:01:36.935Z,83.90
2022-10-31T00:04:04.823Z,84.10
2022-10-31T00:06:32.180Z,84.10
2022-10-31T00:09:03.079Z,84.10
2022-10-31T00:11:30.536Z,84.20
2022-10-31T00:13:59.512Z,84.10
2022-10-31T00:16:28.272Z,84.20
2022-10-31T00:18:58.464Z,84.20
2022-10-31T00:21:26.546Z,84.20
2022-10-31T00:23:53.609Z,84.20
2022-10-31T00:26:20.795Z,84.20
2022-10-31T00:28:47.953Z,84.30
2022-10-31T00:31:16.216Z,84.40
2022-10-31T00:33:43.435Z,84.40
2022-10-31T00:36:19.575Z,84.40
2022-10-31T00:38:47.928Z,84.60
2022-10-31T00:41:17.319Z,84.50
2022-10-31T00:43:44.977Z,84.40
2022-10-31T00:46:13.688Z,84.30
2022-10-31T00:48:42.748Z,84.30
2022-10-31T00:51:10.422Z,84.30
2022-10-31T00:53:37.481Z,84.30
2022-10-31T00:56:04.894Z,84.30
2022-10-31T00:58:32.151Z,84.40
2022-10-31T01:00:59.039Z,84.50
2022-10-31T01:03:29.022Z,85.30
2022-10-31T01:06:17.633Z,84.60
2022-10-31T01:08:44.654Z,84.60
2022-10-31T01:11:22.361Z,84.70
2022-10-31T01:13:53.201Z,84.80
2022-10-31T01:16:24.183Z,84.40
2022-10-31T01:18:52.284Z,84.80
2022-10-31T01:21:24.000Z,84.80
2022-10-31T01:23:54.270Z,85.00
2022-10-31T01:26:27.856Z,85.20
2022-10-31T01:28:59.443Z,85.60
2022-10-31T01:31:35.179Z,85.90
2022-10-31T01:34:03.327Z,86.20
2022-10-31T01:36:34.044Z,86.20
2022-10-31T01:39:08.672Z,86.20
2022-10-31T01:41:38.986Z,86.40
2022-10-31T01:44:15.077Z,86.40
2022-10-31T01:47:08.725Z,86.50
2022-10-31T01:49:46.004Z,86.50
2022-10-31T01:52:27.308Z,86.00
2022-10-31T01:55:17.091Z,86.00
2022-10-31T01:57:48.612Z,85.70
2022-10-31T02:00:20.934Z,85.70
2022-10-31T02:02:50.451Z,85.70
2022-10-31T02:05:25.881Z,85.70
2022-10-31T02:08:00.958Z,85.90
2022-10-31T02:10:33.036Z,86.40
2022-10-31T02:13:05.631Z,85.60
2022-10-31T02:15:38.644Z,85.70
2022-10-31T02:18:07.049Z,85.80
2022-10-31T02:20:48.694Z,85.90
2022-10-31T02:24:04.783Z,86.20
2022-10-31T02:27:03.787Z,86.30
2022-10-31T02:29:43.059Z,86.40
2022-10-31T02:33:18.507Z,86.10
2022-10-31T02:36:17.602Z,86.20
2022-10-31T02:39:05.048Z,86.00
2022-10-31T02:42:03.963Z,85.70
2022-10-31T02:44:47.241Z,85.30
2022-10-31T02:47:17.986Z,85.20
2022-10-31T02:49:56.673Z,85.10
2022-10-31T02:52:29.596Z,85.00
2022-10-31T02:55:35.014Z,85.00
2022-10-31T02:58:12.849Z,85.40
2022-10-31T03:00:52.043Z,84.90
2022-10-31T03:03:41.389Z,85.30
2022-10-31T03:06:26.066Z,84.60
2022-10-31T03:09:10.292Z,84.60
2022-10-31T03:12:40.255Z,84.50
2022-10-31T03:15:29.918Z,84.90
2022-10-31T03:18:10.754Z,84.70
2022-10-31T03:20:45.896Z,84.60
2022-10-31T03:23:16.839Z,84.60
2022-10-31T03:25:49.439Z,84.70
2022-10-31T03:28:20.287Z,84.70
2022-10-31T03:30:49.330Z,84.70
2022-10-31T03:33:27.506Z,84.80
2022-10-31T03:36:01.033Z,85.30
2022-10-31T03:38:30.794Z,85.50
2022-10-31T03:41:01.318Z,85.90
2022-10-31T03:43:34.308Z,86.70
2022-10-31T03:46:03.011Z,87.00
2022-10-31T03:48:30.097Z,87.30
2022-10-31T03:51:23.515Z,87.60
2022-10-31T03:54:07.175Z,88.10
2022-10-31T03:56:53.444Z,88.20
2022-10-31T03:59:35.282Z,88.70
2022-10-31T04:02:09.691Z,88.60
2022-10-31T04:04:39.163Z,88.70
2022-10-31T04:07:08.025Z,88.70
2022-10-31T04:09:39.797Z,88.90
2022-10-31T04:12:10.069Z,88.90
2022-10-31T04:15:04.446Z,88.90
2022-10-31T04:17:36.194Z,88.80
2022-10-31T04:20:04.100Z,88.90
2022-10-31T04:22:31.681Z,88.90
2022-10-31T04:25:00.545Z,88.80
2022-10-31T04:27:27.492Z,88.70
2022-10-31T04:29:54.395Z,88.60
2022-10-31T04:32:21.211Z,88.60
2022-10-31T04:34:48.178Z,88.60
2022-10-31T04:37:14.979Z,88.50
2022-10-31T04:39:42.035Z,88.40
2022-10-31T04:42:32.264Z,88.20
2022-10-31T04:45:02.369Z,88.60
2022-10-31T04:47:34.395Z,87.60
2022-10-31T04:50:03.084Z,87.40
2022-10-31T04:52:29.938Z,87.30
2022-10-31T04:54:57.730Z,87.30
2022-10-31T04:57:48.942Z,87.30
2022-10-31T05:00:20.890Z,87.40
2022-10-31T05:02:53.801Z,87.60
2022-10-31T05:05:25.594Z,87.70
2022-10-31T05:07:53.706Z,87.70
2022-10-31T05:10:26.130Z,87.70
2022-10-31T05:12:56.875Z,87.80
2022-10-31T05:15:42.518Z,87.80
2022-10-31T05:18:18.087Z,87.70
2022-10-31T05:21:04.551Z,87.70
2022-10-31T05:23:45.915Z,87.60
2022-10-31T05:26:15.951Z,87.80
2022-10-31T05:28:42.810Z,87.80
2022-10-31T05:31:09.804Z,87.80
2022-10-31T05:33:36.675Z,87.90
2022-10-31T05:36:18.522Z,88.00
2022-10-31T05:38:55.173Z,87.80
2022-10-31T05:41:26.756Z,87.90
2022-10-31T05:44:02.704Z,87.90
2022-10-31T05:46:32.043Z,88.10
2022-10-31T05:49:18.368Z,88.20
2022-10-31T05:52:04.027Z,88.20
2022-10-31T05:54:40.335Z,88.30
2022-10-31T05:57:07.455Z,88.80
2022-10-31T05:59:34.655Z,88.10
2022-10-31T06:02:02.287Z,88.10
2022-10-31T06:04:49.372Z,88.20
2022-10-31T06:07:16.671Z,88.80
2022-10-31T06:09:43.892Z,88.20
2022-10-31T06:12:11.405Z,88.30
2022-10-31T06:15:12.619Z,88.30
2022-10-31T06:17:39.594Z,88.40
2022-10-31T06:20:25.278Z,88.60
2022-10-31T06:23:05.218Z,88.70
2022-10-31T06:25:34.160Z,88.80
2022-10-31T06:28:01.179Z,89.10
2022-10-31T06:30:36.879Z,89.20
2022-10-31T06:33:05.840Z,89.40
2022-10-31T06:35:35.507Z,89.40
2022-10-31T06:38:03.588Z,89.50
2022-10-31T06:40:38.299Z,89.60
2022-10-31T06:43:27.364Z,89.60
2022-10-31T06:46:13.094Z,89.80
2022-10-31T06:49:07.763Z,89.90
2022-10-31T06:51:53.975Z,90.00
2022-10-31T06:54:22.495Z,90.00
2022-10-31T06:56:49.827Z,90.00
2022-10-31T06:59:17.331Z,90.10
2022-10-31T07:02:16.833Z,90.20
2022-10-31T07:04:44.215Z,90.20
2022-10-31T07:07:14.454Z,90.30
2022-10-31T07:09:41.943Z,90.50
2022-10-31T07:12:10.926Z,90.90
2022-10-31T07:14:43.353Z,91.40
2022-10-31T07:17:11.096Z,91.90
2022-10-31T07:19:41.872Z,92.10
2022-10-31T07:22:10.425Z,92.20
2022-10-31T07:24:38.660Z,92.40
2022-10-31T07:27:24.415Z,92.50
2022-10-31T07:29:51.928Z,92.50
2022-10-31T07:32:18.793Z,92.30
2022-10-31T07:34:52.483Z,91.90
2022-10-31T07:37:22.414Z,91.70
2022-10-31T07:39:49.302Z,91.40
2022-10-31T07:42:16.875Z,91.10
2022-10-31T07:44:45.556Z,91.10
2022-10-31T07:47:15.352Z,90.40
2022-10-31T07:50:02.608Z,90.10
2022-10-31T07:53:07.659Z,89.90
2022-10-31T07:55:49.308Z,87.50
2022-10-31T07:58:17.935Z,87.40
2022-10-31T08:00:47.699Z,85.80
2022-10-31T08:03:20.265Z,84.00
2022-10-31T08:05:47.345Z,82.60
2022-10-31T08:08:40.519Z,80.50
2022-10-31T08:11:09.252Z,78.60
2022-10-31T08:13:36.083Z,76.70
2022-10-31T08:16:05.622Z,75.00
2022-10-31T08:18:38.339Z,72.50
2022-10-31T08:21:07.124Z,70.20
2022-10-31T08:23:34.033Z,67.90
2022-10-31T08:26:01.622Z,66.20
2022-10-31T08:28:28.482Z,64.70
2022-10-31T08:30:58.381Z,64.00
2022-10-31T08:33:57.356Z,63.20
2022-10-31T08:36:47.216Z,62.90
2022-10-31T08:39:25.114Z,62.60
2022-10-31T08:41:52.071Z,62.30
2022-10-31T08:44:18.965Z,62.10
2022-10-31T08:46:45.973Z,62.00
2022-10-31T08:49:12.966Z,62.30
2022-10-31T08:51:42.767Z,62.30
2022-10-31T08:54:09.802Z,62.40
2022-10-31T08:56:36.626Z,62.30
2022-10-31T08:59:10.466Z,62.70
2022-10-31T09:01:57.748Z,63.00
2022-10-31T09:04:25.477Z,63.40
2022-10-31T09:09:39.244Z,63.90
2022-10-31T09:12:06.271Z,64.60
2022-10-31T09:14:56.276Z,64.80
2022-10-31T09:17:31.425Z,64.60
2022-10-31T09:20:21.183Z,64.20
2022-10-31T09:22:48.365Z,63.70
2022-10-31T09:25:15.511Z,62.60
2022-10-31T09:27:47.721Z,61.10
2022-10-31T09:30:14.753Z,59.90
2022-10-31T09:32:43.897Z,59.20
2022-10-31T09:37:44.155Z,57.40
2022-10-31T09:40:11.555Z,56.70
2022-10-31T09:42:53.484Z,56.20
2022-10-31T09:46:03.522Z,54.00
2022-10-31T09:48:54.526Z,53.60
2022-10-31T09:52:33.950Z,52.60
2022-10-31T09:55:29.020Z,51.20
2022-10-31T09:57:56.529Z,49.50
2022-10-31T10:00:23.767Z,49.30
2022-10-31T10:03:17.879Z,48.30
2022-10-31T10:06:13.747Z,45.80
2022-10-31T10:09:01.703Z,44.80
2022-10-31T10:11:54.568Z,44.40
2022-10-31T10:14:49.576Z,43.30
2022-10-31T10:17:55.301Z,42.60
2022-10-31T10:20:34.983Z,43.10
2022-10-31T10:23:37.636Z,43.30
2022-10-31T10:26:18.633Z,43.30
2022-10-31T10:29:12.577Z,44.00
2022-10-31T10:31:43.644Z,44.40
2022-10-31T10:34:22.208Z,45.00
2022-10-31T10:36:59.129Z,45.00
2022-10-31T10:39:44.627Z,45.60
2022-10-31T10:42:35.437Z,45.60
2022-10-31T10:45:36.139Z,45.90
2022-10-31T10:48:36.702Z,45.60
2022-10-31T10:51:06.251Z,45.70
2022-10-31T10:54:06.566Z,45.90
2022-10-31T10:57:07.121Z,45.70
2022-10-31T10:59:35.624Z,45.90
2022-10-31T11:02:04.831Z,46.30
2022-10-31T11:04:39.575Z,46.10
2022-10-31T11:07:13.091Z,46.30
2022-10-31T11:09:40.382Z,46.60
2022-10-31T11:12:17.608Z,46.90
2022-10-31T11:14:53.376Z,46.90
2022-10-31T11:17:35.556Z,47.10
2022-10-31T11:20:05.680Z,47.50
2022-10-31T11:22:32.787Z,48.40
2022-10-31T11:24:59.697Z,48.70
2022-10-31T11:27:27.436Z,48.90
2022-10-31T11:30:05.053Z,49.20
2022-10-31T11:32:32.767Z,49.30
2022-10-31T11:35:10.775Z,49.10
2022-10-31T11:37:44.292Z,48.10
2022-10-31T11:40:23.950Z,47.10
2022-10-31T11:42:54.942Z,45.90
2022-10-31T11:45:24.789Z,45.60
2022-10-31T11:47:59.601Z,45.00
2022-10-31T11:50:42.856Z,45.10
2022-10-31T11:53:21.467Z,45.00
2022-10-31T11:56:05.152Z,45.30
2022-10-31T11:58:32.545Z,45.30
2022-10-31T12:00:59.429Z,45.10
2022-10-31T12:03:55.520Z,44.20
2022-10-31T12:06:34.070Z,43.20
2022-10-31T12:09:02.354Z,43.10
2022-10-31T12:12:12.659Z,43.60
2022-10-31T12:15:34.761Z,42.20
2022-10-31T12:18:52.144Z,42.10
2022-10-31T12:21:43.940Z,41.70
2022-10-31T12:24:49.508Z,41.80
2022-10-31T12:27:24.093Z,41.10
2022-10-31T12:30:01.953Z,40.70
2022-10-31T12:32:43.258Z,40.00
2022-10-31T12:35:36.492Z,39.40
2022-10-31T12:38:47.136Z,38.30
2022-10-31T12:41:28.455Z,37.40
2022-10-31T12:44:23.866Z,36.80
2022-10-31T12:47:15.542Z,35.80
2022-10-31T12:50:14.103Z,35.40
2022-10-31T12:53:22.025Z,34.80
2022-10-31T12:56:09.400Z,34.60
2022-10-31T12:58:40.442Z,34.50
2022-10-31T13:01:16.008Z,34.50
2022-10-31T13:04:03.944Z,34.00
2022-10-31T13:06:44.485Z,33.90
2022-10-31T13:09:19.404Z,33.80
2022-10-31T13:11:54.560Z,33.80
2022-10-31T13:14:56.442Z,34.00
2022-10-31T13:17:34.388Z,33.70
2022-10-31T13:20:19.120Z,33.50
2022-10-31T13:22:51.545Z,33.10
2022-10-31T13:25:31.187Z,33.30
2022-10-31T13:28:04.274Z,33.30
2022-10-31T13:30:37.987Z,33.30
2022-10-31T13:33:16.522Z,33.30
2022-10-31T13:35:57.296Z,33.30
2022-10-31T13:38:58.812Z,33.60
2022-10-31T13:41:45.511Z,33.80
2022-10-31T13:44:26.011Z,34.00
2022-10-31T13:46:58.725Z,34.00
2022-10-31T13:49:31.888Z,34.10
2022-10-31T13:52:13.879Z,34.10
2022-10-31T13:54:52.766Z,34.00
2022-10-31T13:57:44.930Z,34.20
2022-10-31T14:00:21.572Z,34.40
2022-10-31T14:02:52.441Z,34.50
2022-10-31T14:05:35.480Z,34.90
2022-10-31T14:08:19.282Z,35.40
2022-10-31T14:10:53.103Z,35.80
2022-10-31T14:13:38.283Z,36.40
2022-10-31T14:16:08.357Z,36.90
2022-10-31T14:18:39.841Z,37.30
2022-10-31T14:21:32.706Z,38.00
2022-10-31T14:23:59.696Z,38.90
2022-10-31T14:26:29.387Z,39.40
2022-10-31T14:29:33.735Z,40.10
2022-10-31T14:32:13.695Z,40.90
2022-10-31T14:34:56.185Z,42.00
2022-10-31T14:38:03.035Z,42.70
2022-10-31T14:41:05.535Z,43.50
2022-10-31T14:43:54.057Z,44.30
2022-10-31T14:46:45.917Z,44.80
2022-10-31T14:49:50.969Z,45.50
2022-10-31T14:52:20.619Z,45.90
2022-10-31T14:54:54.787Z,46.40
2022-10-31T14:57:29.215Z,47.30
2022-10-31T15:00:21.350Z,47.80
2022-10-31T15:03:28.288Z,48.60
2022-10-31T15:05:59.750Z,49.10
2022-10-31T15:08:46.393Z,49.20
2022-10-31T15:11:28.435Z,50.20
2022-10-31T15:13:59.537Z,50.60
2022-10-31T15:16:40.701Z,50.60
2022-10-31T15:19:11.993Z,51.20
2022-10-31T15:21:48.553Z,52.00
2022-10-31T15:24:18.362Z,52.20
2022-10-31T15:26:56.959Z,52.50
2022-10-31T15:29:28.023Z,53.60
2022-10-31T15:32:01.057Z,53.60
2022-10-31T15:34:39.331Z,54.10
2022-10-31T15:37:15.706Z,54.60
2022-10-31T15:39:43.772Z,55.40
2022-10-31T15:42:29.590Z,55.20
2022-10-31T15:45:06.453Z,55.90
2022-10-31T15:47:34.469Z,56.40
2022-10-31T15:50:05.023Z,56.50
2022-10-31T15:52:45.209Z,57.10
2022-10-31T15:55:25.272Z,58.00
2022-10-31T15:58:05.278Z,58.70
2022-10-31T16:00:39.203Z,59.20
2022-10-31T16:03:15.506Z,59.40
2022-10-31T16:05:55.816Z,60.40
2022-10-31T16:08:32.028Z,60.30
2022-10-31T16:11:08.726Z,61.00
2022-10-31T16:14:00.693Z,62.10
2022-10-31T16:16:35.092Z,62.50
2022-10-31T16:19:05.839Z,62.40
2022-10-31T16:21:37.254Z,63.20
2022-10-31T16:24:30.448Z,64.00
2022-10-31T16:27:26.539Z,65.50
2022-10-31T16:29:54.221Z,66.00
2022-10-31T16:32:33.719Z,65.30
2022-10-31T16:35:12.698Z,66.40
2022-10-31T16:37:43.245Z,67.00
2022-10-31T16:40:15.406Z,66.90
2022-10-31T16:42:43.836Z,67.70
2022-10-31T16:45:23.823Z,67.90
2022-10-31T16:47:51.955Z,69.10
2022-10-31T16:50:24.074Z,68.80
2022-10-31T16:53:12.956Z,69.30
2022-10-31T16:55:46.666Z,69.60
2022-10-31T16:58:20.213Z,70.30
2022-10-31T17:00:47.948Z,69.60
2022-10-31T17:03:15.003Z,69.90
2022-10-31T17:05:42.021Z,70.60
2022-10-31T17:08:09.465Z,71.00
2022-10-31T17:10:36.958Z,71.40
2022-10-31T17:13:07.388Z,71.80
2022-10-31T17:15:45.839Z,72.30
2022-10-31T17:18:17.170Z,73.00
2022-10-31T17:20:45.360Z,72.90
2022-10-31T17:23:15.057Z,73.30
2022-10-31T17:25:42.709Z,73.70
2022-10-31T17:28:13.913Z,73.90
2022-10-31T17:30:44.163Z,74.50
2022-10-31T17:33:17.035Z,74.80
2022-10-31T17:35:44.889Z,75.10
2022-10-31T17:38:12.780Z,75.20
2022-10-31T17:40:44.320Z,75.40
2022-10-31T17:43:12.064Z,75.80
2022-10-31T17:45:41.523Z,76.10
2022-10-31T17:48:12.778Z,76.50
2022-10-31T17:50:40.084Z,76.80
2022-10-31T17:53:06.886Z,76.80
2022-10-31T17:55:37.134Z,76.90
2022-10-31T17:58:05.484Z,77.10
2022-10-31T18:00:33.143Z,77.20
2022-10-31T18:03:03.000Z,77.40
2022-10-31T18:05:30.305Z,77.60
2022-10-31T18:08:02.499Z,77.70
2022-10-31T18:10:31.315Z,78.10
2022-10-31T18:12:58.358Z,78.40
2022-10-31T18:15:25.563Z,78.30
2022-10-31T18:17:52.531Z,78.40
2022-10-31T18:20:19.423Z,78.50
2022-10-31T18:22:46.277Z,78.70
2022-10-31T18:25:13.650Z,78.90
2022-10-31T18:27:40.449Z,79.00
2022-10-31T18:30:08.336Z,79.10
2022-10-31T18:32:36.426Z,79.30
2022-10-31T18:35:03.427Z,79.30
2022-10-31T18:37:30.241Z,79.40
2022-10-31T18:39:57.558Z,79.60
2022-10-31T18:42:24.379Z,79.70
2022-10-31T18:44:51.531Z,79.90
2022-10-31T18:47:19.298Z,80.20
2022-10-31T18:49:46.187Z,80.40
2022-10-31T18:52:12.985Z,80.40
2022-10-31T18:54:40.261Z,80.60
2022-10-31T18:57:07.200Z,80.90
2022-10-31T18:59:34.092Z,80.80
2022-10-31T19:02:01.369Z,80.90
2022-10-31T19:04:28.258Z,81.00
2022-10-31T19:06:55.998Z,81.10
2022-10-31T19:09:24.388Z,81.10
2022-10-31T19:11:51.200Z,81.20
2022-10-31T19:14:18.195Z,81.30
2022-10-31T19:16:45.255Z,81.30
2022-10-31T19:19:12.236Z,81.50
2022-10-31T19:21:39.046Z,81.50
2022-10-31T19:24:06.975Z,81.60
2022-10-31T19:26:34.893Z,81.70
2022-10-31T19:29:01.956Z,81.90
2022-10-31T19:31:29.401Z,81.90
2022-10-31T19:33:56.301Z,82.20
2022-10-31T19:36:23.829Z,82.30
2022-10-31T19:38:53.253Z,82.40
2022-10-31T19:41:24.603Z,83.30
2022-10-31T19:43:52.615Z,82.70
2022-10-31T19:46:40.540Z,82.70
2022-10-31T19:49:10.422Z,82.80
2022-10-31T19:51:37.557Z,82.80
2022-10-31T19:54:04.502Z,82.80
2022-10-31T19:56:31.302Z,82.90
2022-10-31T19:59:02.891Z,83.00
2022-10-31T20:01:30.409Z,83.10
2022-10-31T20:03:57.309Z,83.20
2022-10-31T20:06:35.178Z,83.20
2022-10-31T20:09:08.077Z,83.30
2022-10-31T20:11:37.495Z,83.40
2022-10-31T20:14:05.083Z,83.40
2022-10-31T20:16:32.500Z,83.40
2022-10-31T20:18:59.837Z,83.50
2022-10-31T20:21:29.641Z,83.50
2022-10-31T20:24:02.808Z,83.60
2022-10-31T20:26:32.016Z,83.60
2022-10-31T20:29:00.643Z,83.60
2022-10-31T20:31:32.416Z,83.50
2022-10-31T20:33:59.459Z,83.60
2022-10-31T20:36:28.630Z,83.70
2022-10-31T20:38:55.895Z,83.70
2022-10-31T20:41:22.745Z,83.80
2022-10-31T20:43:49.742Z,83.90
2022-10-31T20:46:23.403Z,84.70
2022-10-31T20:48:51.093Z,84.20
2022-10-31T20:51:24.232Z,84.20
2022-10-31T20:53:53.175Z,84.50
2022-10-31T20:56:23.451Z,84.50
2022-10-31T20:58:51.721Z,84.60
2022-10-31T21:01:25.418Z,84.70
2022-10-31T21:03:53.104Z,84.90
2022-10-31T21:06:21.327Z,84.80
2022-10-31T21:08:48.225Z,84.90
2022-10-31T21:11:20.267Z,85.00
2022-10-31T21:13:48.804Z,85.20
2022-10-31T21:16:28.919Z,85.30
2022-10-31T21:18:56.023Z,85.40
2022-10-31T21:21:32.101Z,85.30
2022-10-31T21:24:15.116Z,85.50
2022-10-31T21:26:45.980Z,85.80
2022-10-31T21:29:14.254Z,85.60
2022-10-31T21:31:42.520Z,85.60
2022-10-31T21:34:09.491Z,85.70
2022-10-31T21:36:37.062Z,85.70
2022-10-31T21:39:06.604Z,85.80
2022-10-31T21:41:33.926Z,85.80
2022-10-31T21:44:01.063Z,85.80
2022-10-31T21:46:31.199Z,85.90
2022-10-31T21:48:58.581Z,86.00
2022-10-31T21:51:29.617Z,85.90
2022-10-31T21:54:15.938Z,86.00
2022-10-31T21:56:43.548Z,86.00
2022-10-31T21:59:10.659Z,85.90
2022-10-31T22:01:38.220Z,85.80
2022-10-31T22:04:06.350Z,85.80
2022-10-31T22:06:33.451Z,85.80
2022-10-31T22:09:03.109Z,85.90
2022-10-31T22:11:30.738Z,85.80
2022-10-31T22:14:00.044Z,85.90
2022-10-31T22:16:30.146Z,86.00
2022-10-31T22:19:00.126Z,86.10
2022-10-31T22:21:28.416Z,86.10
2022-10-31T22:24:01.883Z,86.10
2022-10-31T22:26:32.563Z,86.20
2022-10-31T22:29:00.713Z,86.20
2022-10-31T22:31:30.007Z,86.20
2022-10-31T22:33:57.461Z,86.40
2022-10-31T22:36:28.442Z,86.50
2022-10-31T22:38:55.816Z,86.90
2022-10-31T22:41:26.303Z,87.20
2022-10-31T22:43:55.311Z,87.50
2022-10-31T22:46:34.732Z,87.70
2022-10-31T22:49:06.610Z,88.00
2022-10-31T22:51:37.697Z,88.10
2022-10-31T22:54:07.670Z,88.30
2022-10-31T22:56:35.509Z,88.40
2022-10-31T22:59:03.146Z,88.40
2022-10-31T23:01:33.022Z,88.50
2022-10-31T23:04:00.862Z,88.50
2022-10-31T23:06:30.826Z,88.50
2022-10-31T23:09:01.457Z,88.70
2022-10-31T23:11:33.449Z,88.60
2022-10-31T23:14:10.843Z,88.60
2022-10-31T23:16:47.692Z,88.70
2022-10-31T23:19:20.529Z,88.70
2022-10-31T23:22:01.996Z,88.70
2022-10-31T23:24:43.916Z,88.60
2022-10-31T23:27:19.296Z,88.80
2022-10-31T23:29:54.612Z,88.60
2022-10-31T23:32:37.115Z,88.50
2022-10-31T23:35:10.282Z,88.70
2022-10-31T23:37:38.531Z,88.60
2022-10-31T23:40:08.602Z,88.60
2022-10-31T23:42:36.086Z,88.60
2022-10-31T23:45:03.349Z,88.50
2022-10-31T23:47:30.321Z,88.50
2022-10-31T23:49:57.194Z,88.50
2022-10-31T23:52:24.153Z,88.50
2022-10-31T23:54:50.983Z,88.50
2022-10-31T23:57:18.344Z,88.60
2022-10-31T23:59:45.452Z,88.50
